createdAt,value
2018-03-18T00:02:15.186Z,24.70
2018-03-18T00:04:41.848Z,23.73
2018-03-18T00:07:08.569Z,24.92
2018-03-18T00:09:35.350Z,24.73
2018-03-18T00:12:02.084Z,22.90
2018-03-18T00:14:28.852Z,23.40
2018-03-18T00:16:55.659Z,24.52
2018-03-18T00:19:22.537Z,23.83
2018-03-18T00:21:50.024Z,24.37
2018-03-18T00:24:16.762Z,23.80
2018-03-18T00:26:43.678Z,24.83
2018-03-18T00:29:10.336Z,23.90
2018-03-18T00:31:37.272Z,22.85
2018-03-18T00:34:03.948Z,24.23
2018-03-18T00:36:31.553Z,24.10
2018-03-18T00:38:58.294Z,25.25
2018-03-18T00:41:24.978Z,24.30
2018-03-18T00:43:51.680Z,23.15
2018-03-18T00:46:18.352Z,25.08
2018-03-18T00:48:44.987Z,23.45
2018-03-18T00:51:11.672Z,24.65
2018-03-18T00:53:38.417Z,26.98
2018-03-18T00:56:05.082Z,23.25
2018-03-18T00:58:31.741Z,23.60
2018-03-18T01:00:58.419Z,23.27
2018-03-18T01:03:25.056Z,25.62
2018-03-18T01:05:51.737Z,25.10
2018-03-18T01:08:18.372Z,22.45
2018-03-18T01:10:45.035Z,23.50
2018-03-18T01:13:11.750Z,22.65
2018-03-18T01:15:38.410Z,23.50
2018-03-18T01:18:05.074Z,24.42
2018-03-18T01:20:31.732Z,23.65
2018-03-18T01:22:58.489Z,21.75
2018-03-18T01:25:25.626Z,23.45
2018-03-18T01:27:52.266Z,23.45
2018-03-18T01:30:19.465Z,22.60
2018-03-18T01:32:46.072Z,23.00
2018-03-18T01:35:12.800Z,24.85
2018-03-18T01:37:39.994Z,23.33
2018-03-18T01:40:07.179Z,23.77
2018-03-18T01:42:33.832Z,24.12
2018-03-18T01:45:00.666Z,23.60
2018-03-18T01:47:27.315Z,23.70
2018-03-18T01:49:53.958Z,23.73
2018-03-18T01:52:20.615Z,24.60
2018-03-18T01:54:47.312Z,24.48
2018-03-18T01:57:14.079Z,22.95
2018-03-18T01:59:40.689Z,23.60
2018-03-18T02:02:07.343Z,23.40
2018-03-18T02:04:34.014Z,24.85
2018-03-18T02:07:00.708Z,25.15
2018-03-18T02:09:27.382Z,24.35
2018-03-18T02:11:54.022Z,24.87
2018-03-18T02:14:20.670Z,24.50
2018-03-18T02:16:47.406Z,25.25
2018-03-18T02:19:14.028Z,24.48
2018-03-18T02:21:40.668Z,24.73
2018-03-18T02:24:07.305Z,23.98
2018-03-18T02:26:33.951Z,24.05
2018-03-18T02:29:00.690Z,23.52
2018-03-18T02:31:27.341Z,24.45
2018-03-18T02:33:54.012Z,23.42
2018-03-18T02:36:20.731Z,24.90
2018-03-18T02:38:47.423Z,24.67
2018-03-18T02:41:14.099Z,24.30
2018-03-18T02:43:40.757Z,22.15
2018-03-18T02:46:07.529Z,23.55
2018-03-18T02:48:34.977Z,24.10
2018-03-18T02:51:01.741Z,25.37
2018-03-18T02:53:28.464Z,22.80
2018-03-18T02:55:55.141Z,21.30
2018-03-18T02:58:21.861Z,22.65
2018-03-18T03:00:48.548Z,22.75
2018-03-18T03:03:15.221Z,23.33
2018-03-18T03:05:41.956Z,22.65
2018-03-18T03:08:08.600Z,22.42
2018-03-18T03:10:35.266Z,23.30
2018-03-18T03:13:01.946Z,22.48
2018-03-18T03:15:28.609Z,22.13
2018-03-18T03:17:55.985Z,22.52
2018-03-18T03:20:22.968Z,22.13
2018-03-18T03:22:49.621Z,21.65
2018-03-18T03:25:16.520Z,21.15
2018-03-18T03:27:43.168Z,22.05
2018-03-18T03:30:09.828Z,21.80
2018-03-18T03:32:36.565Z,21.27
2018-03-18T03:35:03.229Z,21.62
2018-03-18T03:37:30.665Z,21.25
2018-03-18T03:39:57.351Z,21.92
2018-03-18T03:42:24.031Z,20.67
2018-03-18T03:44:50.694Z,22.17
2018-03-18T03:47:17.380Z,22.05
2018-03-18T03:49:44.096Z,22.48
2018-03-18T03:52:11.609Z,22.27
2018-03-18T03:54:38.260Z,22.00
2018-03-18T03:57:04.913Z,20.07
2018-03-18T03:59:31.539Z,22.52
2018-03-18T04:01:58.175Z,21.05
2018-03-18T04:04:24.827Z,21.58
2018-03-18T04:06:51.613Z,22.10
2018-03-18T04:09:18.245Z,21.87
2018-03-18T04:11:44.892Z,22.20
2018-03-18T04:14:11.536Z,21.62
2018-03-18T04:16:38.196Z,19.60
2018-03-18T04:19:04.856Z,21.05
2018-03-18T04:21:31.490Z,21.10
2018-03-18T04:23:58.159Z,21.90
2018-03-18T04:26:24.847Z,21.00
2018-03-18T04:28:51.485Z,21.40
2018-03-18T04:31:18.265Z,20.60
2018-03-18T04:33:45.066Z,20.98
2018-03-18T04:36:11.723Z,20.35
2018-03-18T04:38:38.371Z,18.85
2018-03-18T04:41:05.029Z,20.60
2018-03-18T04:43:31.703Z,20.70
2018-03-18T04:45:58.359Z,19.73
2018-03-18T04:48:25.006Z,19.65
2018-03-18T04:50:51.720Z,21.25
2018-03-18T04:53:18.450Z,18.87
2018-03-18T04:55:45.422Z,22.08
2018-03-18T04:58:12.070Z,21.87
2018-03-18T05:00:38.713Z,20.50
2018-03-18T05:03:05.515Z,20.58
2018-03-18T05:05:32.270Z,20.92
2018-03-18T05:07:58.896Z,19.80
2018-03-18T05:10:25.610Z,21.23
2018-03-18T05:12:52.349Z,20.83
2018-03-18T05:15:19.107Z,21.23
2018-03-18T05:17:45.863Z,19.75
2018-03-18T05:20:12.494Z,19.42
2018-03-18T05:22:39.134Z,20.52
2018-03-18T05:25:05.769Z,19.62
2018-03-18T05:27:32.522Z,20.30
2018-03-18T05:29:59.158Z,19.40
2018-03-18T05:32:25.842Z,20.48
2018-03-18T05:34:52.474Z,18.35
2018-03-18T05:37:19.129Z,20.40
2018-03-18T05:39:45.790Z,19.85
2018-03-18T05:42:12.520Z,17.35
2018-03-18T05:44:39.176Z,19.70
2018-03-18T05:47:05.845Z,18.58
2018-03-18T05:49:33.358Z,19.85
2018-03-18T05:52:00.020Z,18.23
2018-03-18T05:54:26.679Z,19.35
2018-03-18T05:56:53.353Z,18.17
2018-03-18T05:59:20.142Z,18.20
2018-03-18T06:01:46.804Z,18.45
2018-03-18T06:04:13.669Z,19.65
2018-03-18T06:06:40.414Z,18.85
2018-03-18T06:09:07.064Z,18.67
2018-03-18T06:11:33.713Z,19.05
2018-03-18T06:14:00.394Z,17.85
2018-03-18T06:16:27.030Z,19.00
2018-03-18T06:18:53.681Z,18.17
2018-03-18T06:21:20.537Z,18.52
2018-03-18T06:23:47.254Z,18.85
2018-03-18T06:26:13.927Z,18.27
2018-03-18T06:28:40.567Z,18.02
2018-03-18T06:31:07.219Z,17.92
2018-03-18T06:33:33.911Z,17.98
2018-03-18T06:36:00.590Z,17.67
2018-03-18T06:38:27.240Z,16.73
2018-03-18T06:40:53.947Z,19.37
2018-03-18T06:43:20.610Z,17.52
2018-03-18T06:45:47.677Z,18.05
2018-03-18T06:48:14.355Z,14.77
2018-03-18T06:50:41.016Z,15.90
2018-03-18T06:53:07.791Z,17.98
2018-03-18T06:55:34.494Z,18.65
2018-03-18T06:58:01.172Z,17.52
2018-03-18T07:00:27.917Z,17.37
2018-03-18T07:02:54.546Z,17.98
2018-03-18T07:05:21.242Z,17.80
2018-03-18T07:07:49.248Z,18.12
2018-03-18T07:10:15.948Z,18.52
2018-03-18T07:12:42.618Z,16.90
2018-03-18T07:15:09.268Z,16.62
2018-03-18T07:17:35.930Z,17.15
2018-03-18T07:20:02.658Z,17.75
2018-03-18T07:22:29.797Z,17.87
2018-03-18T07:24:56.472Z,17.70
2018-03-18T07:27:23.142Z,17.12
2018-03-18T07:29:49.785Z,18.98
2018-03-18T07:32:16.458Z,17.50
2018-03-18T07:34:43.177Z,16.55
2018-03-18T07:37:09.819Z,18.27
2018-03-18T07:39:36.566Z,16.50
2018-03-18T07:42:03.204Z,17.02
2018-03-18T07:44:29.880Z,17.13
2018-03-18T07:46:56.521Z,16.85
2018-03-18T07:49:23.225Z,16.75
2018-03-18T07:51:49.872Z,18.23
2018-03-18T07:54:16.517Z,17.03
2018-03-18T07:56:43.225Z,17.47
2018-03-18T07:59:09.842Z,17.75
2018-03-18T08:01:37.217Z,16.95
2018-03-18T08:04:03.936Z,17.77
2018-03-18T08:06:30.563Z,18.62
2018-03-18T08:08:57.359Z,16.00
2018-03-18T08:11:24.044Z,17.00
2018-03-18T08:13:50.726Z,16.40
2018-03-18T08:16:17.435Z,16.95
2018-03-18T08:18:44.074Z,16.80
2018-03-18T08:21:10.731Z,17.77
2018-03-18T08:23:37.363Z,18.33
2018-03-18T08:26:04.082Z,15.95
2018-03-18T08:28:30.878Z,16.13
2018-03-18T08:30:57.581Z,18.77
2018-03-18T08:33:24.527Z,17.10
2018-03-18T08:35:51.483Z,15.02
2018-03-18T08:38:18.177Z,17.40
2018-03-18T08:40:44.847Z,16.87
2018-03-18T08:43:11.554Z,17.80
2018-03-18T08:45:38.236Z,17.40
2018-03-18T08:48:04.900Z,17.40
2018-03-18T08:50:31.556Z,15.75
2018-03-18T08:52:58.210Z,15.50
2018-03-18T08:55:24.924Z,17.37
2018-03-18T08:57:51.814Z,16.90
2018-03-18T09:00:18.499Z,16.07
2018-03-18T09:02:45.345Z,14.97
2018-03-18T09:05:12.017Z,16.40
2018-03-18T09:07:39.113Z,15.60
2018-03-18T09:10:05.902Z,15.53
2018-03-18T09:12:32.540Z,16.07
2018-03-18T09:14:59.277Z,16.47
2018-03-18T09:17:25.909Z,15.97
2018-03-18T09:19:52.626Z,16.20
2018-03-18T09:22:19.314Z,16.30
2018-03-18T09:24:46.014Z,15.57
2018-03-18T09:27:12.703Z,16.03
2018-03-18T09:29:40.093Z,16.00
2018-03-18T09:32:06.715Z,15.80
2018-03-18T09:34:33.369Z,16.07
2018-03-18T09:37:00.020Z,15.47
2018-03-18T09:39:26.731Z,15.50
2018-03-18T09:41:54.076Z,15.67
2018-03-18T09:44:20.721Z,15.57
2018-03-18T09:46:47.352Z,16.10
2018-03-18T09:49:14.031Z,14.83
2018-03-18T09:51:40.753Z,15.30
2018-03-18T09:54:07.388Z,15.30
2018-03-18T09:56:34.087Z,14.40
2018-03-18T09:59:00.736Z,14.43
2018-03-18T10:01:27.376Z,16.00
2018-03-18T10:03:54.028Z,14.40
2018-03-18T10:06:20.696Z,15.20
2018-03-18T10:08:47.381Z,15.60
2018-03-18T10:11:14.699Z,14.50
2018-03-18T10:13:41.338Z,15.20
2018-03-18T10:16:08.032Z,15.47
2018-03-18T10:18:34.668Z,14.57
2018-03-18T10:21:01.310Z,14.07
2018-03-18T10:23:27.997Z,14.63
2018-03-18T10:25:54.680Z,15.23
2018-03-18T10:28:21.430Z,14.60
2018-03-18T10:30:48.082Z,14.63
2018-03-18T10:33:14.780Z,16.73
2018-03-18T10:35:41.457Z,15.10
2018-03-18T10:38:08.103Z,15.83
2018-03-18T10:40:34.739Z,14.10
2018-03-18T10:43:01.432Z,13.80
2018-03-18T10:45:28.094Z,14.60
2018-03-18T10:47:54.850Z,15.53
2018-03-18T10:50:21.493Z,15.07
2018-03-18T10:52:48.125Z,13.03
2018-03-18T10:55:14.770Z,14.70
2018-03-18T10:57:41.427Z,15.00
2018-03-18T11:00:08.077Z,16.20
2018-03-18T11:02:34.809Z,14.80
2018-03-18T11:05:01.591Z,14.87
2018-03-18T11:07:28.323Z,15.07
2018-03-18T11:09:55.365Z,14.63
2018-03-18T11:12:22.034Z,15.30
2018-03-18T11:14:48.743Z,15.03
2018-03-18T11:17:15.395Z,14.80
2018-03-18T11:19:42.032Z,14.60
2018-03-18T11:22:08.821Z,14.53
2018-03-18T11:24:35.608Z,14.83
2018-03-18T11:27:02.279Z,14.63
2018-03-18T11:29:29.043Z,15.10
2018-03-18T11:31:56.324Z,14.80
2018-03-18T11:34:23.017Z,14.90
2018-03-18T11:36:49.723Z,14.80
2018-03-18T11:39:17.068Z,15.20
2018-03-18T11:41:43.745Z,15.20
2018-03-18T11:44:10.429Z,14.80
2018-03-18T11:46:37.138Z,13.43
2018-03-18T11:49:03.822Z,13.47
2018-03-18T11:51:30.498Z,15.00
2018-03-18T11:53:57.141Z,15.20
2018-03-18T11:56:23.792Z,14.40
2018-03-18T11:58:50.503Z,14.87
2018-03-18T12:01:17.127Z,13.70
2018-03-18T12:03:43.793Z,15.20
2018-03-18T12:06:10.436Z,14.23
2018-03-18T12:08:42.969Z,14.60
2018-03-18T12:11:09.637Z,14.23
2018-03-18T12:13:36.608Z,13.73
2018-03-18T12:16:03.306Z,14.47
2018-03-18T12:18:29.969Z,14.63
2018-03-18T12:20:56.750Z,15.60
2018-03-18T12:23:23.398Z,14.37
2018-03-18T12:25:50.038Z,15.33
2018-03-18T12:28:16.741Z,15.20
2018-03-18T12:30:43.382Z,14.80
2018-03-18T12:33:10.031Z,13.73
2018-03-18T12:35:36.663Z,15.67
2018-03-18T12:38:03.312Z,14.53
2018-03-18T12:40:32.924Z,14.83
2018-03-18T12:43:05.429Z,14.23
2018-03-18T12:45:32.087Z,15.10
2018-03-18T12:47:58.863Z,15.20
2018-03-18T12:50:25.577Z,15.97
2018-03-18T12:52:52.223Z,14.00
2018-03-18T12:55:18.996Z,14.30
2018-03-18T12:57:45.687Z,16.13
2018-03-18T13:00:12.584Z,15.10
2018-03-18T13:02:39.313Z,13.87
2018-03-18T13:05:05.956Z,15.27
2018-03-18T13:07:32.655Z,15.20
2018-03-18T13:09:59.508Z,16.03
2018-03-18T13:12:26.145Z,14.87
2018-03-18T13:14:53.616Z,13.40
2018-03-18T13:17:20.426Z,14.43
2018-03-18T13:19:47.151Z,16.10
2018-03-18T13:22:13.794Z,15.20
2018-03-18T13:24:40.509Z,14.87
2018-03-18T13:27:07.122Z,14.37
2018-03-18T13:29:33.842Z,15.10
2018-03-18T13:32:00.619Z,14.60
2018-03-18T13:34:27.333Z,14.63
2018-03-18T13:36:54.055Z,14.87
2018-03-18T13:39:20.700Z,14.53
2018-03-18T13:41:47.362Z,15.60
2018-03-18T13:44:14.051Z,15.23
2018-03-18T13:46:40.707Z,15.10
2018-03-18T13:49:07.341Z,13.63
2018-03-18T13:51:34.100Z,15.17
2018-03-18T13:54:01.012Z,16.47
2018-03-18T13:56:27.671Z,14.97
2018-03-18T13:58:54.559Z,15.23
2018-03-18T14:01:21.216Z,15.73
2018-03-18T14:03:47.890Z,14.33
2018-03-18T14:06:14.583Z,14.70
2018-03-18T14:08:41.888Z,14.70
2018-03-18T14:11:08.514Z,15.93
2018-03-18T14:13:35.176Z,15.27
2018-03-18T14:16:02.573Z,16.03
2018-03-18T14:18:29.347Z,15.90
2018-03-18T14:20:56.049Z,14.53
2018-03-18T14:23:22.749Z,14.43
2018-03-18T14:25:49.461Z,16.77
2018-03-18T14:28:16.120Z,16.80
2018-03-18T14:30:43.565Z,16.10
2018-03-18T14:33:10.334Z,16.57
2018-03-18T14:35:37.038Z,16.10
2018-03-18T14:38:03.714Z,16.40
2018-03-18T14:40:30.427Z,15.80
2018-03-18T14:42:57.107Z,15.40
2018-03-18T14:45:23.764Z,15.93
2018-03-18T14:47:50.403Z,14.87
2018-03-18T14:50:17.101Z,14.17
2018-03-18T14:52:43.765Z,16.40
2018-03-18T14:55:12.891Z,14.83
2018-03-18T14:57:39.578Z,15.70
2018-03-18T15:00:06.315Z,14.57
2018-03-18T15:02:32.905Z,16.00
2018-03-18T15:04:59.549Z,15.57
2018-03-18T15:07:26.350Z,15.80
2018-03-18T15:09:53.382Z,14.77
2018-03-18T15:12:19.992Z,15.63
2018-03-18T15:14:46.634Z,16.03
2018-03-18T15:17:13.331Z,15.60
2018-03-18T15:19:40.032Z,15.10
2018-03-18T15:22:06.695Z,15.53
2018-03-18T15:24:33.358Z,14.90
2018-03-18T15:27:00.123Z,14.77
2018-03-18T15:29:26.813Z,13.53
2018-03-18T15:31:53.643Z,15.43
2018-03-18T15:34:20.321Z,16.00
2018-03-18T15:36:46.991Z,13.83
2018-03-18T15:39:14.673Z,14.90
2018-03-18T15:41:41.340Z,13.93
2018-03-18T15:44:08.015Z,14.90
2018-03-18T15:46:34.838Z,15.37
2018-03-18T15:49:01.481Z,14.17
2018-03-18T15:51:28.154Z,14.90
2018-03-18T15:53:54.797Z,14.33
2018-03-18T15:56:22.281Z,13.47
2018-03-18T15:58:48.940Z,13.60
2018-03-18T16:01:15.614Z,14.43
2018-03-18T16:03:42.271Z,13.70
2018-03-18T16:06:08.943Z,13.63
2018-03-18T16:08:35.601Z,15.63
2018-03-18T16:11:02.229Z,14.97
2018-03-18T16:13:28.877Z,15.60
2018-03-18T16:15:55.722Z,13.30
2018-03-18T16:18:22.393Z,14.03
2018-03-18T16:20:49.039Z,13.20
2018-03-18T16:23:15.675Z,13.80
2018-03-18T16:25:42.991Z,13.20
2018-03-18T16:28:09.752Z,13.10
2018-03-18T16:30:42.340Z,13.73
2018-03-18T16:33:08.948Z,16.10
2018-03-18T16:35:35.620Z,13.07
2018-03-18T16:38:02.375Z,14.90
2018-03-18T16:40:29.026Z,13.90
2018-03-18T16:42:55.714Z,13.97
2018-03-18T16:45:22.374Z,13.27
2018-03-18T16:47:49.134Z,13.77
2018-03-18T16:50:16.023Z,12.50
2018-03-18T16:52:42.630Z,13.50
2018-03-18T16:55:09.265Z,12.90
2018-03-18T16:57:36.055Z,14.07
2018-03-18T17:00:02.692Z,15.10
2018-03-18T17:02:29.445Z,12.80
2018-03-18T17:04:56.247Z,15.17
2018-03-18T17:07:22.878Z,13.50
2018-03-18T17:09:49.523Z,14.70
2018-03-18T17:12:16.173Z,13.67
2018-03-18T17:14:42.947Z,14.17
2018-03-18T17:17:09.610Z,14.10
2018-03-18T17:19:36.506Z,13.17
2018-03-18T17:22:03.148Z,13.87
2018-03-18T17:24:29.903Z,14.73
2018-03-18T17:26:56.598Z,13.33
2018-03-18T17:29:23.277Z,13.53
2018-03-18T17:31:49.946Z,13.53
2018-03-18T17:34:16.653Z,14.03
2018-03-18T17:36:43.291Z,13.70
2018-03-18T17:39:09.966Z,14.83
2018-03-18T17:41:36.703Z,14.20
2018-03-18T17:44:06.413Z,15.43
2018-03-18T17:46:39.055Z,14.37
2018-03-18T17:49:11.940Z,14.27
2018-03-18T17:51:44.390Z,14.50
2018-03-18T17:54:16.735Z,14.50
2018-03-18T17:56:54.183Z,13.80
2018-03-18T17:59:20.957Z,15.00
2018-03-18T18:01:47.717Z,14.23
2018-03-18T18:04:15.305Z,13.20
2018-03-18T18:06:41.982Z,14.23
2018-03-18T18:09:08.765Z,14.60
2018-03-18T18:11:35.437Z,14.80
2018-03-18T18:14:02.242Z,13.70
2018-03-18T18:16:28.946Z,14.90
2018-03-18T18:18:55.615Z,15.37
2018-03-18T18:21:22.357Z,13.77
2018-03-18T18:23:49.016Z,13.43
2018-03-18T18:26:15.770Z,13.53
2018-03-18T18:28:44.159Z,13.63
2018-03-18T18:31:10.815Z,14.63
2018-03-18T18:33:37.876Z,12.53
2018-03-18T18:36:04.760Z,12.90
2018-03-18T18:38:31.698Z,12.80
2018-03-18T18:40:58.547Z,13.83
2018-03-18T18:43:25.247Z,14.00
2018-03-18T18:45:52.045Z,13.73
2018-03-18T18:48:18.824Z,14.97
2018-03-18T18:50:45.508Z,13.13
2018-03-18T18:53:12.242Z,15.40
2018-03-18T18:55:39.004Z,13.33
2018-03-18T18:58:05.670Z,13.80
2018-03-18T19:00:32.476Z,13.47
2018-03-18T19:02:59.210Z,13.97
2018-03-18T19:05:25.851Z,14.97
2018-03-18T19:07:52.482Z,13.10
2018-03-18T19:10:19.207Z,13.60
2018-03-18T19:12:46.015Z,13.60
2018-03-18T19:15:12.905Z,14.00
2018-03-18T19:17:39.721Z,14.60
2018-03-18T19:20:06.391Z,14.00
2018-03-18T19:22:33.073Z,13.37
2018-03-18T19:24:59.750Z,13.30
2018-03-18T19:27:26.408Z,14.53
2018-03-18T19:29:53.173Z,14.17
2018-03-18T19:32:20.019Z,13.27
2018-03-18T19:34:47.059Z,12.70
2018-03-18T19:37:14.059Z,13.40
2018-03-18T19:39:40.804Z,13.70
2018-03-18T19:42:07.458Z,14.10
2018-03-18T19:44:34.684Z,14.50
2018-03-18T19:47:01.327Z,14.00
2018-03-18T19:49:28.139Z,12.90
2018-03-18T19:51:54.842Z,13.43
2018-03-18T19:54:21.524Z,13.80
2018-03-18T19:56:52.122Z,13.53
2018-03-18T19:59:18.824Z,13.90
2018-03-18T20:01:45.537Z,14.90
2018-03-18T20:04:12.179Z,14.80
2018-03-18T20:06:39.411Z,12.70
2018-03-18T20:09:06.182Z,13.20
2018-03-18T20:11:33.083Z,12.63
2018-03-18T20:13:59.875Z,12.97
2018-03-18T20:16:26.562Z,14.67
2018-03-18T20:18:53.220Z,14.00
2018-03-18T20:21:19.865Z,13.43
2018-03-18T20:23:46.662Z,13.30
2018-03-18T20:26:13.441Z,13.53
2018-03-18T20:28:40.191Z,13.70
2018-03-18T20:31:06.953Z,13.40
2018-03-18T20:33:33.738Z,13.47
2018-03-18T20:36:00.672Z,13.90
2018-03-18T20:38:27.300Z,13.80
2018-03-18T20:40:54.180Z,12.67
2018-03-18T20:43:20.900Z,12.67
2018-03-18T20:45:47.653Z,12.87
2018-03-18T20:48:14.347Z,13.40
2018-03-18T20:50:41.128Z,13.03
2018-03-18T20:53:08.218Z,13.70
2018-03-18T20:55:35.049Z,13.97
2018-03-18T20:58:01.707Z,13.43
2018-03-18T21:00:28.528Z,13.10
2018-03-18T21:02:55.201Z,12.43
2018-03-18T21:05:21.840Z,13.30
2018-03-18T21:07:48.490Z,13.40
2018-03-18T21:10:15.156Z,14.23
2018-03-18T21:12:41.811Z,13.50
2018-03-18T21:15:08.968Z,13.43
2018-03-18T21:17:35.606Z,13.30
2018-03-18T21:20:02.284Z,12.43
2018-03-18T21:22:28.969Z,13.93
2018-03-18T21:24:55.647Z,12.53
2018-03-18T21:27:22.279Z,14.00
2018-03-18T21:29:48.932Z,13.67
2018-03-18T21:32:15.593Z,14.40
2018-03-18T21:34:42.235Z,14.50
2018-03-18T21:37:08.901Z,13.70
2018-03-18T21:39:35.538Z,12.40
2018-03-18T21:42:02.188Z,12.73
2018-03-18T21:44:28.837Z,13.87
2018-03-18T21:46:55.487Z,12.70
2018-03-18T21:49:22.259Z,13.40
2018-03-18T21:51:49.708Z,14.13
2018-03-18T21:54:16.348Z,13.87
2018-03-18T21:56:43.005Z,12.53
2018-03-18T21:59:09.670Z,12.37
2018-03-18T22:01:40.098Z,12.60
2018-03-18T22:04:06.880Z,12.30
2018-03-18T22:06:33.843Z,13.10
2018-03-18T22:09:00.660Z,13.83
2018-03-18T22:11:27.357Z,13.60
2018-03-18T22:13:54.035Z,13.70
2018-03-18T22:16:20.808Z,12.67
2018-03-18T22:18:47.667Z,12.90
2018-03-18T22:21:14.493Z,13.00
2018-03-18T22:23:41.145Z,13.70
2018-03-18T22:26:08.250Z,13.20
2018-03-18T22:28:35.507Z,12.23
2018-03-18T22:31:02.148Z,12.80
2018-03-18T22:33:28.831Z,13.23
2018-03-18T22:35:55.516Z,13.57
2018-03-18T22:38:22.183Z,12.83
2018-03-18T22:40:48.839Z,13.90
2018-03-18T22:43:15.472Z,13.97
2018-03-18T22:45:42.146Z,13.77
2018-03-18T22:48:08.811Z,13.70
2018-03-18T22:50:35.473Z,13.80
2018-03-18T22:53:02.173Z,13.93
2018-03-18T22:55:28.841Z,14.33
2018-03-18T22:57:55.555Z,14.33
2018-03-18T23:00:22.529Z,13.73
2018-03-18T23:02:49.409Z,13.90
2018-03-18T23:05:16.063Z,14.23
2018-03-18T23:07:42.873Z,13.80
2018-03-18T23:10:09.690Z,14.67
2018-03-18T23:12:36.324Z,14.80
2018-03-18T23:15:02.982Z,14.30
2018-03-18T23:17:29.617Z,14.33
2018-03-18T23:19:56.291Z,15.40
2018-03-18T23:22:22.927Z,12.93
2018-03-18T23:24:49.586Z,13.97
2018-03-18T23:27:16.239Z,12.90
2018-03-18T23:29:42.906Z,14.83
2018-03-18T23:32:09.609Z,15.23
2018-03-18T23:34:36.253Z,13.83
2018-03-18T23:37:02.968Z,15.17
2018-03-18T23:39:29.604Z,12.90
2018-03-18T23:41:56.393Z,13.73
2018-03-18T23:44:23.051Z,13.50
2018-03-18T23:46:49.715Z,14.83
2018-03-18T23:49:16.352Z,14.57
2018-03-18T23:51:42.983Z,14.83
2018-03-18T23:54:09.891Z,15.10
2018-03-18T23:56:36.773Z,13.60
2018-03-18T23:59:03.451Z,13.97
